Denville, NJ (07834)

12:59 PM EDT on September 23, 2014 (GMT -0400)
Rainbow Lakes | Change Station
CLOSE
Current Station
Personal Weather Station
Location: Denville, NJ
Elevation: 525 ft
Nearby Weather Stations

Elev 525 ft 40.88 °N, 74.46 °W | Updated 9 minutes ago

Clear
Clear
65.9 °F
Feels Like 65.9 °F
N
1.0
Wind Variable Wind from North
Gusts 3.0 mph

Today
High -- | Low -- °F
--% Chance of Precip.
Yesterday
High -- | Low -- °F
Precip. -- in
6:46 AM 6:53 PM
Waning Crescent, 0% visible
Pressure 30.33 in
Visibility 20.0 miles
Clouds Few 25000 ft
Dew Point 46 °F
Humidity 49%
Rainfall 0.00 in
Snow Depth Not available.
UV 7 out of 12
Pollen 3.10 out of 12
Ozone Good
PM2.5 Good
Flu Activity Not available.
METAR KMMU 231645Z 00000KT 20SM FEW250 19/06 A3033

More Conditions Fewer Conditions

Pressure 30.33 in
Visibility 20.0 miles
Clouds Few 25000 ft
Dew Point 46 °F
Humidity 49%
Rainfall 0.00 in
Snow Depth Not available.
UV 7 out of 12
Pollen 3.10 out of 12
Ozone Good
PM2.5 Good
Flu Activity Not available.
METAR KMMU 231645Z 00000KT 20SM FEW250 19/06 A3033

More Conditions Fewer Conditions

10-Day Weather Forecast

Almanac

Astronomy

Sep. 23, 2014 Rise Set
Actual Time 6:46 AM EDT 6:53 PM EDT
Civil Twilight 6:19 AM EDT 7:20 PM EDT
Nautical Twilight 5:46 AM EDT 7:52 PM EDT
Astronomical Twilight 5:14 AM EDT 8:25 PM EDT
Moon 6:08 AM EDT 6:30 PM EDT
Length of Visible Light 13h 01m
Length of Day
12h 07m
Tomorrow will be 2m 41s shorter.
Waning Crescent, 0% of the Moon is Illuminated
Today
Waning Crescent
Sep 24
New
Oct 1
First Quarter
Oct 8
Full
Oct 15
Last Quarter

Today's Extremes

State Highs State Lows

Community

WunderPhotos

Upload Photos

1,755,750 photos uploaded!

WunderBlogs® & News

Nearby

Air Quality

  Air Quality AQ Index Pollutant
Yesterday Good
PM2.5
Current Good
OZONE
Current Good
PM2.5
Tuesday Good
OZONE
Tuesday Good
PM2.5

Snow Depth

Station Depth Elevation
No new snow has been reported.

Earthquake Activity

City Distance Mag. Time & Date
No recent earthquake activity has been reported nearby.
Minimum magnitude displayed is 2.5.

Coastal Water Temperatures

Place Temperature
Sandy Hook, NJ 66.9 °F
The Battery, NY 70.0 °F
Bergen Point West Reach, NJ 69.1 °F
Kings Point, NY 66.0 °F

Nearby Weather Stations